sensor_id;sensor_type;location;lat;lon;timestamp;pressure;altitude;pressure_sealevel;temperature;humidity
55044;BME280;54902;50.420;18.854;2023-11-21T00:00:13;100456.13;;;8.54;88.41
55044;BME280;54902;50.420;18.854;2023-11-21T00:00:45;100453.41;;;8.54;88.37
55044;BME280;54902;50.420;18.854;2023-11-21T00:01:16;100463.45;;;8.54;88.40
55044;BME280;54902;50.420;18.854;2023-11-21T00:01:47;100456.26;;;8.53;88.39
55044;BME280;54902;50.420;18.854;2023-11-21T00:02:18;100461.71;;;8.53;88.35
55044;BME280;54902;50.420;18.854;2023-11-21T00:02:50;100457.11;;;8.53;88.35
55044;BME280;54902;50.420;18.854;2023-11-21T00:03:21;100461.71;;;8.53;88.36
55044;BME280;54902;50.420;18.854;2023-11-21T00:03:58;100467.15;;;8.53;88.35
55044;BME280;54902;50.420;18.854;2023-11-21T00:04:29;100464.43;;;8.53;88.33
55044;BME280;54902;50.420;18.854;2023-11-21T00:05:00;100453.54;;;8.53;88.34
55044;BME280;54902;50.420;18.854;2023-11-21T00:05:33;100465.41;;;8.52;88.33
55044;BME280;54902;50.420;18.854;2023-11-21T00:06:06;100441.52;;;8.44;88.33
55044;BME280;54902;50.420;18.854;2023-11-21T00:06:40;100458.23;;;8.51;88.32
55044;BME280;54902;50.420;18.854;2023-11-21T00:07:11;100460.95;;;8.51;88.33
55044;BME280;54902;50.420;18.854;2023-11-21T00:07:43;100464.55;;;8.51;88.31
55044;BME280;54902;50.420;18.854;2023-11-21T00:08:14;100463.67;;;8.51;88.30
55044;BME280;54902;50.420;18.854;2023-11-21T00:08:45;100471.84;;;8.51;88.29
55044;BME280;54902;50.420;18.854;2023-11-21T00:09:16;100458.23;;;8.51;88.30
55044;BME280;54902;50.420;18.854;2023-11-21T00:09:49;100460.09;;;8.50;88.30
55044;BME280;54902;50.420;18.854;2023-11-21T00:10:20;100470.98;;;8.50;88.29
55044;BME280;54902;50.420;18.854;2023-11-21T00:10:51;100462.82;;;8.50;88.27
55044;BME280;54902;50.420;18.854;2023-11-21T00:11:22;100468.27;;;8.50;88.27
55044;BME280;54902;50.420;18.854;2023-11-21T00:11:55;100468.27;;;8.50;88.26
55044;BME280;54902;50.420;18.854;2023-11-21T00:12:26;100462.05;;;8.48;88.24
55044;BME280;54902;50.420;18.854;2023-11-21T00:12:59;100460.23;;;8.49;88.23
55044;BME280;54902;50.420;18.854;2023-11-21T00:13:33;100462.05;;;8.48;88.22
55044;BME280;54902;50.420;18.854;2023-11-21T00:14:05;100465.66;;;8.49;88.21
55044;BME280;54902;50.420;18.854;2023-11-21T00:14:37;100466.64;;;8.48;88.20
55044;BME280;54902;50.420;18.854;2023-11-21T00:15:09;100465.79;;;8.47;88.20
55044;BME280;54902;50.420;18.854;2023-11-21T00:15:46;100467.63;;;8.47;88.18
55044;BME280;54902;50.420;18.854;2023-11-21T00:16:17;100458.48;;;8.48;88.17
55044;BME280;54902;50.420;18.854;2023-11-21T00:16:48;100470.35;;;8.47;88.17
55044;BME280;54902;50.420;18.854;2023-11-21T00:17:28;100464.05;;;8.46;88.16
55044;BME280;54902;50.420;18.854;2023-11-21T00:17:59;100470.35;;;8.47;88.17
55044;BME280;54902;50.420;18.854;2023-11-21T00:18:30;100467.76;;;8.45;88.15
55044;BME280;54902;50.420;18.854;2023-11-21T00:19:01;100471.37;;;8.46;88.15
55044;BME280;54902;50.420;18.854;2023-11-21T00:19:32;100469.63;;;8.45;88.14
55044;BME280;54902;50.420;18.854;2023-11-21T00:20:07;100469.63;;;8.45;88.13
55044;BME280;54902;50.420;18.854;2023-11-21T00:20:38;100463.30;;;8.44;88.13
55044;BME280;54902;50.420;18.854;2023-11-21T00:21:09;100459.72;;;8.44;88.13
55044;BME280;54902;50.420;18.854;2023-11-21T00:21:43;100473.33;;;8.44;88.12
55044;BME280;54902;50.420;18.854;2023-11-21T00:22:15;100465.29;;;8.42;88.10
55044;BME280;54902;50.420;18.854;2023-11-21T00:22:46;100472.60;;;8.42;88.12
55044;BME280;54902;50.420;18.854;2023-11-21T00:23:18;100461.21;;;8.37;87.99
55044;BME280;54902;50.420;18.854;2023-11-21T00:23:49;100478.05;;;8.42;88.10
55044;BME280;54902;50.420;18.854;2023-11-21T00:24:20;100472.60;;;8.42;88.10
55044;BME280;54902;50.420;18.854;2023-11-21T00:24:51;100473.59;;;8.41;88.11
55044;BME280;54902;50.420;18.854;2023-11-21T00:25:23;100476.31;;;8.41;88.11
55044;BME280;54902;50.420;18.854;2023-11-21T00:25:58;100474.44;;;8.41;88.10
55044;BME280;54902;50.420;18.854;2023-11-21T00:26:29;100484.47;;;8.41;88.11
55044;BME280;54902;50.420;18.854;2023-11-21T00:27:07;100477.29;;;8.40;88.12
55044;BME280;54902;50.420;18.854;2023-11-21T00:27:38;100476.31;;;8.41;88.10
55044;BME280;54902;50.420;18.854;2023-11-21T00:28:09;100481.88;;;8.39;88.10
55044;BME280;54902;50.420;18.854;2023-11-21T00:28:43;100481.88;;;8.39;88.11
55044;BME280;54902;50.420;18.854;2023-11-21T00:29:18;100483.72;;;8.39;88.10
55044;BME280;54902;50.420;18.854;2023-11-21T00:29:49;100473.84;;;8.38;88.09
55044;BME280;54902;50.420;18.854;2023-11-21T00:30:20;100485.58;;;8.38;88.11
55044;BME280;54902;50.420;18.854;2023-11-21T00:30:52;100481.12;;;8.37;88.11
55044;BME280;54902;50.420;18.854;2023-11-21T00:31:24;100484.73;;;8.38;88.12
55044;BME280;54902;50.420;18.854;2023-11-21T00:32:00;100476.56;;;8.38;88.12
55044;BME280;54902;50.420;18.854;2023-11-21T00:32:31;100482.98;;;8.37;88.12
55044;BME280;54902;50.420;18.854;2023-11-21T00:33:02;100477.54;;;8.37;88.13
55044;BME280;54902;50.420;18.854;2023-11-21T00:33:34;100481.25;;;8.36;88.12
55044;BME280;54902;50.420;18.854;2023-11-21T00:34:05;100481.25;;;8.36;88.12
55044;BME280;54902;50.420;18.854;2023-11-21T00:34:36;100474.82;;;8.37;88.14
55044;BME280;54902;50.420;18.854;2023-11-21T00:35:08;100477.54;;;8.37;88.15
55044;BME280;54902;50.420;18.854;2023-11-21T00:35:39;100472.10;;;8.37;88.14
55044;BME280;54902;50.420;18.854;2023-11-21T00:36:10;100478.52;;;8.36;88.12
55044;BME280;54902;50.420;18.854;2023-11-21T00:36:41;100474.94;;;8.35;88.14
55044;BME280;54902;50.420;18.854;2023-11-21T00:37:12;100474.06;;;8.35;88.14
55044;BME280;54902;50.420;18.854;2023-11-21T00:38:03;100473.08;;;8.36;88.16
55044;BME280;54902;50.420;18.854;2023-11-21T00:38:47;100482.21;;;8.35;88.15
55044;BME280;54902;50.420;18.854;2023-11-21T00:39:41;100481.37;;;8.34;88.15
55044;BME280;54902;50.420;18.854;2023-11-21T00:40:31;100479.51;;;8.35;88.14
55044;BME280;54902;50.420;18.854;2023-11-21T00:41:25;100483.20;;;8.34;88.14
55044;BME280;54902;50.420;18.854;2023-11-21T00:42:02;100477.77;;;8.34;88.15
55044;BME280;54902;50.420;18.854;2023-11-21T00:43:01;100477.77;;;8.34;88.15
55044;BME280;54902;50.420;18.854;2023-11-21T00:44:23;100479.51;;;8.35;88.15
55044;BME280;54902;50.420;18.854;2023-11-21T00:45:01;100485.07;;;8.33;88.16
55044;BME280;54902;50.420;18.854;2023-11-21T00:45:39;100485.07;;;8.33;88.17
55044;BME280;54902;50.420;18.854;2023-11-21T00:46:16;100481.62;;;8.31;88.18
55044;BME280;54902;50.420;18.854;2023-11-21T00:46:47;100483.20;;;8.34;88.20
55044;BME280;54902;50.420;18.854;2023-11-21T00:47:17;100486.95;;;8.33;88.19
55044;BME280;54902;50.420;18.854;2023-11-21T00:47:49;100486.95;;;8.33;88.20
55044;BME280;54902;50.420;18.854;2023-11-21T00:48:25;100484.22;;;8.33;88.19
55044;BME280;54902;50.420;18.854;2023-11-21T00:48:56;100485.20;;;8.32;88.18
55044;BME280;54902;50.420;18.854;2023-11-21T00:49:28;100484.22;;;8.33;88.19
55044;BME280;54902;50.420;18.854;2023-11-21T00:49:59;100490.51;;;8.33;88.19
55044;BME280;54902;50.420;18.854;2023-11-21T00:50:30;100485.07;;;8.33;88.19
55044;BME280;54902;50.420;18.854;2023-11-21T00:51:01;100485.20;;;8.32;88.20
55044;BME280;54902;50.420;18.854;2023-11-21T00:51:32;100481.50;;;8.33;88.20
55044;BME280;54902;50.420;18.854;2023-11-21T00:52:04;100479.76;;;8.32;88.21
55044;BME280;54902;50.420;18.854;2023-11-21T00:52:35;100485.20;;;8.32;88.22
55044;BME280;54902;50.420;18.854;2023-11-21T00:53:06;100484.22;;;8.33;88.22
55044;BME280;54902;50.420;18.854;2023-11-21T00:53:38;100487.07;;;8.31;88.21
55044;BME280;54902;50.420;18.854;2023-11-21T00:54:10;100487.92;;;8.32;88.22
55044;BME280;54902;50.420;18.854;2023-11-21T00:54:41;100486.95;;;8.33;88.21
55044;BME280;54902;50.420;18.854;2023-11-21T00:55:13;100487.07;;;8.31;88.22
55044;BME280;54902;50.420;18.854;2023-11-21T00:55:44;100490.64;;;8.32;88.22
55044;BME280;54902;50.420;18.854;2023-11-21T00:56:16;100487.07;;;8.31;88.22
55044;BME280;54902;50.420;18.854;2023-11-21T00:56:47;100483.46;;;8.31;88.22
55044;BME280;54902;50.420;18.854;2023-11-21T00:57:18;100483.46;;;8.31;88.22
55044;BME280;54902;50.420;18.854;2023-11-21T00:57:50;100472.56;;;8.31;88.23
55044;BME280;54902;50.420;18.854;2023-11-21T00:58:21;100479.88;;;8.30;88.24
55044;BME280;54902;50.420;18.854;2023-11-21T00:58:53;100487.16;;;8.30;88.23
55044;BME280;54902;50.420;18.854;2023-11-21T00:59:24;100486.17;;;8.31;88.26
55044;BME280;54902;50.420;18.854;2023-11-21T00:59:55;100489.78;;;8.31;88.26
55044;BME280;54902;50.420;18.854;2023-11-21T01:00:26;100483.46;;;8.31;88.26
55044;BME280;54902;50.420;18.854;2023-11-21T01:00:57;100481.71;;;8.30;88.25
55044;BME280;54902;50.420;18.854;2023-11-21T01:01:28;100486.30;;;8.29;88.26
55044;BME280;54902;50.420;18.854;2023-11-21T01:02:00;100481.71;;;8.30;88.26
55044;BME280;54902;50.420;18.854;2023-11-21T01:02:32;100488.04;;;8.30;88.29
55044;BME280;54902;50.420;18.854;2023-11-21T01:03:03;100487.16;;;8.30;88.29
55044;BME280;54902;50.420;18.854;2023-11-21T01:03:34;100481.71;;;8.30;88.31
55044;BME280;54902;50.420;18.854;2023-11-21T01:04:05;100481.71;;;8.30;88.29
55044;BME280;54902;50.420;18.854;2023-11-21T01:04:37;100484.45;;;8.30;88.32
55044;BME280;54902;50.420;18.854;2023-11-21T01:05:08;100481.71;;;8.30;88.34
55044;BME280;54902;50.420;18.854;2023-11-21T01:05:39;100481.71;;;8.30;88.34
55044;BME280;54902;50.420;18.854;2023-11-21T01:06:10;100482.60;;;8.30;88.35
55044;BME280;54902;50.420;18.854;2023-11-21T01:06:41;100487.16;;;8.30;88.36
55044;BME280;54902;50.420;18.854;2023-11-21T01:07:12;100487.16;;;8.30;88.36
55044;BME280;54902;50.420;18.854;2023-11-21T01:07:44;100481.71;;;8.30;88.35
55044;BME280;54902;50.420;18.854;2023-11-21T01:08:15;100487.16;;;8.30;88.35
55044;BME280;54902;50.420;18.854;2023-11-21T01:08:46;100484.45;;;8.30;88.35
55044;BME280;54902;50.420;18.854;2023-11-21T01:09:17;100489.88;;;8.30;88.38
55044;BME280;54902;50.420;18.854;2023-11-21T01:09:49;100483.59;;;8.29;88.36
55044;BME280;54902;50.420;18.854;2023-11-21T01:10:20;100487.16;;;8.30;88.36
55044;BME280;54902;50.420;18.854;2023-11-21T01:10:51;100487.16;;;8.30;88.36
55044;BME280;54902;50.420;18.854;2023-11-21T01:11:22;100491.75;;;8.29;88.35
55044;BME280;54902;50.420;18.854;2023-11-21T01:11:53;100487.16;;;8.30;88.37
55044;BME280;54902;50.420;18.854;2023-11-21T01:12:24;100479.88;;;8.30;88.37
55044;BME280;54902;50.420;18.854;2023-11-21T01:12:55;100490.89;;;8.29;88.37
55044;BME280;54902;50.420;18.854;2023-11-21T01:13:28;100488.17;;;8.29;88.38
55044;BME280;54902;50.420;18.854;2023-11-21T01:13:59;100487.28;;;8.28;88.37
55044;BME280;54902;50.420;18.854;2023-11-21T01:14:30;100480.86;;;8.29;88.39
55044;BME280;54902;50.420;18.854;2023-11-21T01:15:02;100484.56;;;8.28;88.38
55044;BME280;54902;50.420;18.854;2023-11-21T01:15:35;100480.86;;;8.29;88.39
55044;BME280;54902;50.420;18.854;2023-11-21T01:16:07;100481.71;;;8.30;88.44
55044;BME280;54902;50.420;18.854;2023-11-21T01:16:38;100478.14;;;8.29;88.47
55044;BME280;54902;50.420;18.854;2023-11-21T01:17:09;100480.86;;;8.29;88.51
55044;BME280;54902;50.420;18.854;2023-11-21T01:17:40;100476.27;;;8.30;88.50
55044;BME280;54902;50.420;18.854;2023-11-21T01:18:11;100475.30;;;8.31;88.53
55044;BME280;54902;50.420;18.854;2023-11-21T01:18:42;100476.27;;;8.30;88.52
55044;BME280;54902;50.420;18.854;2023-11-21T01:19:14;100473.55;;;8.30;88.53
55044;BME280;54902;50.420;18.854;2023-11-21T01:19:45;100472.70;;;8.29;88.51
55044;BME280;54902;50.420;18.854;2023-11-21T01:20:16;100470.83;;;8.30;88.58
55044;BME280;54902;50.420;18.854;2023-11-21T01:20:48;100480.86;;;8.29;88.57
55044;BME280;54902;50.420;18.854;2023-11-21T01:21:19;100475.42;;;8.29;88.58
55044;BME280;54902;50.420;18.854;2023-11-21T01:21:49;100476.27;;;8.30;88.57
55044;BME280;54902;50.420;18.854;2023-11-21T01:22:22;100474.57;;;8.29;88.59
55044;BME280;54902;50.420;18.854;2023-11-21T01:22:56;100471.34;;;8.24;88.55
55044;BME280;54902;50.420;18.854;2023-11-21T01:23:27;100486.30;;;8.29;88.55
55044;BME280;54902;50.420;18.854;2023-11-21T01:23:58;100474.57;;;8.29;88.54
55044;BME280;54902;50.420;18.854;2023-11-21T01:24:29;100474.57;;;8.29;88.59
55044;BME280;54902;50.420;18.854;2023-11-21T01:25:00;100480.01;;;8.29;88.61
55044;BME280;54902;50.420;18.854;2023-11-21T01:25:31;100480.01;;;8.29;88.62
55044;BME280;54902;50.420;18.854;2023-11-21T01:26:02;100480.86;;;8.29;88.63
55044;BME280;54902;50.420;18.854;2023-11-21T01:26:34;100480.01;;;8.29;88.62
55044;BME280;54902;50.420;18.854;2023-11-21T01:27:05;100480.86;;;8.29;88.63
55044;BME280;54902;50.420;18.854;2023-11-21T01:27:36;100482.73;;;8.29;88.63
55044;BME280;54902;50.420;18.854;2023-11-21T01:28:07;100474.57;;;8.29;88.64
55044;BME280;54902;50.420;18.854;2023-11-21T01:28:38;100488.17;;;8.29;88.64
55044;BME280;54902;50.420;18.854;2023-11-21T01:29:09;100472.83;;;8.28;88.66
55044;BME280;54902;50.420;18.854;2023-11-21T01:29:40;100480.98;;;8.28;88.65
55044;BME280;54902;50.420;18.854;2023-11-21T01:30:12;100480.01;;;8.29;88.64
55044;BME280;54902;50.420;18.854;2023-11-21T01:30:43;100481.84;;;8.28;88.64
55044;BME280;54902;50.420;18.854;2023-11-21T01:31:15;100478.27;;;8.28;88.64
55044;BME280;54902;50.420;18.854;2023-11-21T01:31:46;100478.27;;;8.28;88.64
55044;BME280;54902;50.420;18.854;2023-11-21T01:32:17;100483.71;;;8.28;88.63
55044;BME280;54902;50.420;18.854;2023-11-21T01:32:48;100486.42;;;8.28;88.61
55044;BME280;54902;50.420;18.854;2023-11-21T01:33:20;100479.25;;;8.27;88.63
55044;BME280;54902;50.420;18.854;2023-11-21T01:33:52;100484.56;;;8.28;88.63
55044;BME280;54902;50.420;18.854;2023-11-21T01:34:23;100481.98;;;8.27;88.65
55044;BME280;54902;50.420;18.854;2023-11-21T01:34:54;100488.30;;;8.27;88.63
55044;BME280;54902;50.420;18.854;2023-11-21T01:35:25;100482.85;;;8.27;88.64
55044;BME280;54902;50.420;18.854;2023-11-21T01:35:56;100484.69;;;8.27;88.65
55044;BME280;54902;50.420;18.854;2023-11-21T01:36:31;100482.85;;;8.27;88.66
55044;BME280;54902;50.420;18.854;2023-11-21T01:37:06;100481.84;;;8.28;88.63
55044;BME280;54902;50.420;18.854;2023-11-21T01:37:37;100486.42;;;8.28;88.63
55044;BME280;54902;50.420;18.854;2023-11-21T01:38:09;100478.00;;;8.20;88.77
55044;BME280;54902;50.420;18.854;2023-11-21T01:38:40;100482.85;;;8.27;88.63
55044;BME280;54902;50.420;18.854;2023-11-21T01:39:11;100482.94;;;8.26;88.63
55044;BME280;54902;50.420;18.854;2023-11-21T01:39:49;100482.85;;;8.27;88.63
55044;BME280;54902;50.420;18.854;2023-11-21T01:40:20;100491.11;;;8.26;88.62
55044;BME280;54902;50.420;18.854;2023-11-21T01:40:51;100481.12;;;8.26;88.61
55044;BME280;54902;50.420;18.854;2023-11-21T01:41:22;100490.25;;;8.25;88.63
55044;BME280;54902;50.420;18.854;2023-11-21T01:41:53;100477.25;;;8.18;88.62
55044;BME280;54902;50.420;18.854;2023-11-21T01:42:24;100490.25;;;8.25;88.64
55044;BME280;54902;50.420;18.854;2023-11-21T01:42:56;100488.40;;;8.26;88.61
55044;BME280;54902;50.420;18.854;2023-11-21T01:43:29;100490.25;;;8.25;88.63
55044;BME280;54902;50.420;18.854;2023-11-21T01:44:02;100485.67;;;8.26;88.61
55044;BME280;54902;50.420;18.854;2023-11-21T01:44:37;100486.68;;;8.25;88.60
55044;BME280;54902;50.420;18.854;2023-11-21T01:45:09;100487.54;;;8.25;88.61
55044;BME280;54902;50.420;18.854;2023-11-21T01:45:40;100491.11;;;8.26;88.64
55044;BME280;54902;50.420;18.854;2023-11-21T01:46:11;100491.11;;;8.26;88.62
55044;BME280;54902;50.420;18.854;2023-11-21T01:46:42;100491.23;;;8.24;88.61
55044;BME280;54902;50.420;18.854;2023-11-21T01:47:14;100492.12;;;8.25;88.63
55044;BME280;54902;50.420;18.854;2023-11-21T01:47:46;100501.14;;;8.25;88.60
55044;BME280;54902;50.420;18.854;2023-11-21T01:48:17;100500.29;;;8.25;88.60
55044;BME280;54902;50.420;18.854;2023-11-21T01:48:52;100484.42;;;8.19;88.56
55044;BME280;54902;50.420;18.854;2023-11-21T01:49:24;100495.70;;;8.25;88.60
55044;BME280;54902;50.420;18.854;2023-11-21T01:49:56;100494.85;;;8.25;88.58
55044;BME280;54902;50.420;18.854;2023-11-21T01:50:27;100495.70;;;8.25;88.58
55044;BME280;54902;50.420;18.854;2023-11-21T01:50:59;100490.25;;;8.25;88.58
55044;BME280;54902;50.420;18.854;2023-11-21T01:51:30;100493.96;;;8.24;88.57
55044;BME280;54902;50.420;18.854;2023-11-21T01:52:02;100496.55;;;8.26;88.58
55044;BME280;54902;50.420;18.854;2023-11-21T01:52:35;100489.41;;;8.25;88.58
55044;BME280;54902;50.420;18.854;2023-11-21T01:53:06;100500.29;;;8.25;88.58
55044;BME280;54902;50.420;18.854;2023-11-21T01:53:39;100492.12;;;8.25;88.58
55044;BME280;54902;50.420;18.854;2023-11-21T01:54:10;100497.56;;;8.25;88.58
55044;BME280;54902;50.420;18.854;2023-11-21T01:54:42;100497.56;;;8.25;88.56
55044;BME280;54902;50.420;18.854;2023-11-21T01:55:16;100494.85;;;8.25;88.56
55044;BME280;54902;50.420;18.854;2023-11-21T01:55:51;100489.41;;;8.25;88.60
55044;BME280;54902;50.420;18.854;2023-11-21T01:56:23;100496.55;;;8.26;88.62
55044;BME280;54902;50.420;18.854;2023-11-21T01:56:54;100488.40;;;8.26;88.63
55044;BME280;54902;50.420;18.854;2023-11-21T01:57:25;100489.41;;;8.25;88.64
55044;BME280;54902;50.420;18.854;2023-11-21T01:57:56;100493.96;;;8.24;88.62
55044;BME280;54902;50.420;18.854;2023-11-21T01:58:31;100498.42;;;8.25;88.61
55044;BME280;54902;50.420;18.854;2023-11-21T01:59:03;100493.96;;;8.24;88.59
55044;BME280;54902;50.420;18.854;2023-11-21T01:59:35;100485.80;;;8.24;88.59
55044;BME280;54902;50.420;18.854;2023-11-21T02:00:08;100488.40;;;8.26;88.61
55044;BME280;54902;50.420;18.854;2023-11-21T02:00:47;100483.96;;;8.25;88.60
55044;BME280;54902;50.420;18.854;2023-11-21T02:01:23;100489.41;;;8.25;88.60
55044;BME280;54902;50.420;18.854;2023-11-21T02:01:56;100484.81;;;8.25;88.62
55044;BME280;54902;50.420;18.854;2023-11-21T02:02:27;100486.68;;;8.25;88.60
55044;BME280;54902;50.420;18.854;2023-11-21T02:02:59;100484.81;;;8.25;88.60
55044;BME280;54902;50.420;18.854;2023-11-21T02:03:30;100494.85;;;8.25;88.60
55044;BME280;54902;50.420;18.854;2023-11-21T02:04:01;100492.98;;;8.25;88.61
55044;BME280;54902;50.420;18.854;2023-11-21T02:04:33;100490.25;;;8.25;88.61
55044;BME280;54902;50.420;18.854;2023-11-21T02:05:05;100501.14;;;8.25;88.63
55044;BME280;54902;50.420;18.854;2023-11-21T02:05:36;100493.83;;;8.26;88.58
55044;BME280;54902;50.420;18.854;2023-11-21T02:06:07;100486.68;;;8.25;88.58
55044;BME280;54902;50.420;18.854;2023-11-21T02:06:39;100494.85;;;8.25;88.56
55044;BME280;54902;50.420;18.854;2023-11-21T02:07:10;100492.12;;;8.25;88.55
55044;BME280;54902;50.420;18.854;2023-11-21T02:07:42;100502.13;;;8.24;88.56
55044;BME280;54902;50.420;18.854;2023-11-21T02:08:18;100494.94;;;8.23;88.54
55044;BME280;54902;50.420;18.854;2023-11-21T02:08:50;100489.49;;;8.23;88.54
55044;BME280;54902;50.420;18.854;2023-11-21T02:09:28;100491.23;;;8.24;88.55
55044;BME280;54902;50.420;18.854;2023-11-21T02:10:01;100498.54;;;8.24;88.54
55044;BME280;54902;50.420;18.854;2023-11-21T02:10:32;100494.85;;;8.25;88.56
55044;BME280;54902;50.420;18.854;2023-11-21T02:11:04;100492.47;;;8.20;88.70
55044;BME280;54902;50.420;18.854;2023-11-21T02:11:35;100505.82;;;8.23;88.52
55044;BME280;54902;50.420;18.854;2023-11-21T02:12:09;100503.98;;;8.24;88.51
55044;BME280;54902;50.420;18.854;2023-11-21T02:12:44;100503.98;;;8.24;88.51
55044;BME280;54902;50.420;18.854;2023-11-21T02:13:16;100510.42;;;8.23;88.50
55044;BME280;54902;50.420;18.854;2023-11-21T02:13:47;100494.09;;;8.23;88.52
55044;BME280;54902;50.420;18.854;2023-11-21T02:14:21;100500.38;;;8.23;88.49
55044;BME280;54902;50.420;18.854;2023-11-21T02:14:53;100504.96;;;8.23;88.48
55044;BME280;54902;50.420;18.854;2023-11-21T02:15:24;100499.52;;;8.23;88.50
55044;BME280;54902;50.420;18.854;2023-11-21T02:15:59;100498.67;;;8.22;88.48
55044;BME280;54902;50.420;18.854;2023-11-21T02:16:30;100500.50;;;8.22;88.46
55044;BME280;54902;50.420;18.854;2023-11-21T02:17:03;100500.50;;;8.22;88.45
55044;BME280;54902;50.420;18.854;2023-11-21T02:17:37;100507.82;;;8.21;88.32
55044;BME280;54902;50.420;18.854;2023-11-21T02:18:09;100500.50;;;8.22;88.45
55044;BME280;54902;50.420;18.854;2023-11-21T02:18:41;100501.52;;;8.21;88.46
55044;BME280;54902;50.420;18.854;2023-11-21T02:19:17;100502.38;;;8.21;88.47
55044;BME280;54902;50.420;18.854;2023-11-21T02:19:53;100497.91;;;8.20;88.48
55044;BME280;54902;50.420;18.854;2023-11-21T02:20:24;100491.62;;;8.20;88.48
55044;BME280;54902;50.420;18.854;2023-11-21T02:20:58;100508.79;;;8.20;88.47
55044;BME280;54902;50.420;18.854;2023-11-21T02:21:33;100500.63;;;8.20;88.46
55044;BME280;54902;50.420;18.854;2023-11-21T02:22:07;100504.34;;;8.19;88.48
55044;BME280;54902;50.420;18.854;2023-11-21T02:22:40;100505.23;;;8.20;88.45
55044;BME280;54902;50.420;18.854;2023-11-21T02:23:12;100506.20;;;8.19;88.45
55044;BME280;54902;50.420;18.854;2023-11-21T02:23:43;100498.03;;;8.19;88.46
55044;BME280;54902;50.420;18.854;2023-11-21T02:24:20;100503.48;;;8.19;88.46
55044;BME280;54902;50.420;18.854;2023-11-21T02:24:51;100506.20;;;8.19;88.48
55044;BME280;54902;50.420;18.854;2023-11-21T02:25:29;100509.90;;;8.18;88.46
55044;BME280;54902;50.420;18.854;2023-11-21T02:26:00;100504.45;;;8.18;88.45
55044;BME280;54902;50.420;18.854;2023-11-21T02:26:35;100508.19;;;8.17;88.45
55044;BME280;54902;50.420;18.854;2023-11-21T02:27:05;100505.48;;;8.17;88.44
55044;BME280;54902;50.420;18.854;2023-11-21T02:27:37;100502.75;;;8.17;88.44
55044;BME280;54902;50.420;18.854;2023-11-21T02:28:08;100511.88;;;8.16;88.43
55044;BME280;54902;50.420;18.854;2023-11-21T02:28:39;100514.61;;;8.16;88.42
55044;BME280;54902;50.420;18.854;2023-11-21T02:29:11;100490.12;;;8.16;88.45
55044;BME280;54902;50.420;18.854;2023-11-21T02:29:43;100506.45;;;8.16;88.46
55044;BME280;54902;50.420;18.854;2023-11-21T02:30:15;100511.88;;;8.16;88.46
55044;BME280;54902;50.420;18.854;2023-11-21T02:30:46;100511.88;;;8.16;88.46
55044;BME280;54902;50.420;18.854;2023-11-21T02:31:26;100511.00;;;8.15;88.46
55044;BME280;54902;50.420;18.854;2023-11-21T02:31:57;100511.00;;;8.15;88.47
55044;BME280;54902;50.420;18.854;2023-11-21T02:32:30;100504.70;;;8.15;88.47
55044;BME280;54902;50.420;18.854;2023-11-21T02:33:02;100510.15;;;8.15;88.47
55044;BME280;54902;50.420;18.854;2023-11-21T02:33:33;100507.44;;;8.15;88.49
55044;BME280;54902;50.420;18.854;2023-11-21T02:34:05;100507.55;;;8.13;88.45
55044;BME280;54902;50.420;18.854;2023-11-21T02:34:36;100506.70;;;8.13;88.46
55044;BME280;54902;50.420;18.854;2023-11-21T02:35:09;100518.43;;;8.13;88.45
55044;BME280;54902;50.420;18.854;2023-11-21T02:35:42;100513.94;;;8.12;88.47
55044;BME280;54902;50.420;18.854;2023-11-21T02:36:14;100515.80;;;8.12;88.46
55044;BME280;54902;50.420;18.854;2023-11-21T02:36:45;100510.36;;;8.12;88.48
55044;BME280;54902;50.420;18.854;2023-11-21T02:37:19;100514.86;;;8.13;88.49
55044;BME280;54902;50.420;18.854;2023-11-21T02:37:51;100511.22;;;8.12;88.50
55044;BME280;54902;50.420;18.854;2023-11-21T02:38:22;100518.52;;;8.12;88.49
55044;BME280;54902;50.420;18.854;2023-11-21T02:38:53;100515.80;;;8.12;88.51
55044;BME280;54902;50.420;18.854;2023-11-21T02:39:24;100516.66;;;8.12;88.55
55044;BME280;54902;50.420;18.854;2023-11-21T02:39:56;100510.36;;;8.12;88.55
55044;BME280;54902;50.420;18.854;2023-11-21T02:40:27;100509.41;;;8.13;88.55
55044;BME280;54902;50.420;18.854;2023-11-21T02:40:58;100518.52;;;8.12;88.54
55044;BME280;54902;50.420;18.854;2023-11-21T02:41:32;100508.63;;;8.11;88.54
55044;BME280;54902;50.420;18.854;2023-11-21T02:42:05;100509.47;;;8.11;88.56
55044;BME280;54902;50.420;18.854;2023-11-21T02:42:36;100509.47;;;8.11;88.53
55044;BME280;54902;50.420;18.854;2023-11-21T02:43:07;100508.63;;;8.11;88.52
55044;BME280;54902;50.420;18.854;2023-11-21T02:43:38;100510.36;;;8.12;88.54
55044;BME280;54902;50.420;18.854;2023-11-21T02:44:09;100511.34;;;8.11;88.54
55044;BME280;54902;50.420;18.854;2023-11-21T02:44:40;100508.63;;;8.11;88.56
55044;BME280;54902;50.420;18.854;2023-11-21T02:45:11;100514.06;;;8.11;88.57
55044;BME280;54902;50.420;18.854;2023-11-21T02:45:47;100514.06;;;8.11;88.56
55044;BME280;54902;50.420;18.854;2023-11-21T02:46:18;100516.90;;;8.09;88.55
55044;BME280;54902;50.420;18.854;2023-11-21T02:46:49;100520.48;;;8.10;88.56
55044;BME280;54902;50.420;18.854;2023-11-21T02:47:20;100519.50;;;8.11;88.56
55044;BME280;54902;50.420;18.854;2023-11-21T02:47:51;100513.21;;;8.10;88.57
55044;BME280;54902;50.420;18.854;2023-11-21T02:48:25;100522.23;;;8.11;88.54
55044;BME280;54902;50.420;18.854;2023-11-21T02:48:57;100521.46;;;8.09;88.53
55044;BME280;54902;50.420;18.854;2023-11-21T02:49:29;100522.34;;;8.09;88.53
55044;BME280;54902;50.420;18.854;2023-11-21T02:50:00;100516.90;;;8.09;88.55
55044;BME280;54902;50.420;18.854;2023-11-21T02:50:31;100516.02;;;8.09;88.60